Time;durP1;ratioP1;P1;durP2;ratioP2;P2;SDS_P1;SDS_P2;PMS_P1;PMS_P2;Temp;Humidity;BMP_temperature;BMP_pressure;BME280_temperature;BME280_humidity;BME280_pressure;Samples;Min_cycle;Max_cycle;Signal;HPM_P1;HPM_P2
2022/02/11 00:07:45;;;;;;;;;;;9.40;99.90;;;;;;5059751;28;19967;-71
2022/02/11 00:10:10;;;;;;;;;;;9.30;99.90;;;;;;5067895;28;20306;-71
2022/02/11 00:12:36;;;;;;;;;;;9.30;99.90;;;;;;5058425;28;19916;-71
2022/02/11 00:17:47;;;;;;;;;;;9.50;99.90;;;;;;5065314;28;20283;-72
2022/02/11 00:20:12;;;;;;;;;;;9.40;99.90;;;;;;5069606;28;19966;-70
2022/02/11 00:22:38;;;;;;;;;;;9.30;99.90;;;;;;5068713;28;20283;-71
2022/02/11 00:25:03;;;;;;;;;;;9.30;99.90;;;;;;5069563;28;19909;-71
2022/02/11 00:37:46;;;;;;;;;;;9.40;99.90;;;;;;5065579;28;20386;-70
2022/02/11 00:40:38;;;;;;;;;;;9.50;99.90;;;;;;5063854;28;19919;-71
2022/02/11 00:44:04;;;;;;;;;;;9.40;99.90;;;;;;5066571;28;19935;-71
2022/02/11 01:04:54;;;;;;;;;;;9.50;99.90;;;;;;5058364;28;19913;-71
2022/02/11 01:07:20;;;;;;;;;;;9.50;99.90;;;;;;5067279;28;19917;-71
2022/02/11 01:09:45;;;;;;;;;;;9.40;99.90;;;;;;5072701;28;20285;-71
2022/02/11 01:12:12;;;;;;;;;;;9.40;99.90;;;;;;5075930;28;19967;-70
2022/02/11 01:14:42;;;;;;;;;;;9.40;99.90;;;;;;5072409;28;19986;-70
2022/02/11 01:37:54;;;;;;;;;;;9.40;99.90;;;;;;5056201;28;19978;-70
2022/02/11 01:40:36;;;;;;;;;;;9.40;99.90;;;;;;5057186;28;19938;-71
2022/02/11 01:46:22;;;;;;;;;;;9.40;99.90;;;;;;5066799;28;20269;-71
2022/02/11 01:54:01;;;;;;;;;;;9.50;99.90;;;;;;5062212;28;20003;-71
2022/02/11 02:23:12;;;;;;;;;;;9.50;99.90;;;;;;5059219;28;19913;-70
2022/02/11 02:59:01;;;;;;;;;;;9.70;99.90;;;;;;5053128;28;19919;-70
2022/02/11 03:49:44;;;;;;;;;;;9.70;99.90;;;;;;5063673;28;20003;-72
2022/02/11 04:21:46;;;;;;;;;;;9.90;99.90;;;;;;5055869;28;19961;-71
2022/02/11 05:00:11;;;;;;;;;;;10.00;99.90;;;;;;5059503;28;20258;-70
2022/02/11 05:02:38;;;;;;;;;;;10.00;99.90;;;;;;5078331;28;20003;-72
2022/02/11 05:05:06;;;;;;;;;;;10.00;99.90;;;;;;5071890;28;19912;-70
2022/02/11 05:07:33;;;;;;;;;;;10.00;99.90;;;;;;5062723;28;20007;-72
2022/02/11 05:09:59;;;;;;;;;;;10.00;99.90;;;;;;5070323;28;19985;-71
2022/02/11 05:12:25;;;;;;;;;;;10.00;99.90;;;;;;5066619;28;19921;-72
2022/02/11 05:14:50;;;;;;;;;;;10.00;99.90;;;;;;5057102;28;19921;-71
2022/02/11 05:17:16;;;;;;;;;;;9.90;99.90;;;;;;5077819;28;19916;-70
2022/02/11 05:19:41;;;;;;;;;;;9.90;99.90;;;;;;5066096;28;19913;-71
2022/02/11 05:22:07;;;;;;;;;;;9.90;99.90;;;;;;5061704;28;19913;-71
2022/02/11 05:24:33;;;;;;;;;;;9.90;99.90;;;;;;5068651;28;20005;-71
2022/02/11 05:26:58;;;;;;;;;;;9.90;99.90;;;;;;5060543;28;19913;-70
2022/02/11 05:29:24;;;;;;;;;;;9.90;99.90;;;;;;5072595;28;19934;-74
2022/02/11 05:31:50;;;;;;;;;;;9.90;99.90;;;;;;5074325;28;19982;-70
2022/02/11 05:34:16;;;;;;;;;;;9.80;99.90;;;;;;5062930;28;20550;-72
2022/02/11 05:36:42;;;;;;;;;;;9.90;99.90;;;;;;5056305;28;19917;-74
2022/02/11 05:39:07;;;;;;;;;;;9.80;99.90;;;;;;5059125;28;20007;-72
2022/02/11 05:41:33;;;;;;;;;;;9.90;99.90;;;;;;5060044;28;19958;-70
2022/02/11 05:43:58;;;;;;;;;;;9.80;99.90;;;;;;5062381;28;20409;-72
2022/02/11 05:46:27;;;;;;;;;;;9.80;99.90;;;;;;5057833;28;19973;-72
2022/02/11 05:48:53;;;;;;;;;;;9.70;99.90;;;;;;5057520;28;19921;-72
2022/02/11 05:51:19;;;;;;;;;;;9.70;99.90;;;;;;5063503;28;19971;-72
2022/02/11 05:53:45;;;;;;;;;;;9.80;99.90;;;;;;5058830;28;19999;-74
2022/02/11 05:56:10;;;;;;;;;;;9.80;99.90;;;;;;5059674;28;20007;-70
2022/02/11 05:58:38;;;;;;;;;;;9.80;99.90;;;;;;5078962;28;19966;-71
2022/02/11 06:01:06;;;;;;;;;;;9.80;99.90;;;;;;5059183;28;20006;-73
2022/02/11 06:03:32;;;;;;;;;;;9.80;99.90;;;;;;5072081;28;19913;-70
2022/02/11 06:05:58;;;;;;;;;;;9.80;99.90;;;;;;5065654;28;19919;-71
2022/02/11 06:08:24;;;;;;;;;;;9.70;99.90;;;;;;5059204;28;19913;-73
2022/02/11 06:10:49;;;;;;;;;;;9.80;99.90;;;;;;5064250;28;19964;-69
2022/02/11 06:13:15;;;;;;;;;;;9.80;99.90;;;;;;5080536;28;19916;-70
2022/02/11 06:15:44;;;;;;;;;;;9.80;99.90;;;;;;5082821;28;20023;-69
2022/02/11 06:18:10;;;;;;;;;;;9.80;99.90;;;;;;5070148;28;19916;-71
2022/02/11 06:20:36;;;;;;;;;;;9.90;99.90;;;;;;5099982;28;19921;-74
2022/02/11 06:23:02;;;;;;;;;;;9.80;99.90;;;;;;5057828;28;19919;-70
2022/02/11 06:25:28;;;;;;;;;;;9.90;99.90;;;;;;5082701;28;20079;-72
2022/02/11 06:27:54;;;;;;;;;;;9.90;99.90;;;;;;5105019;28;19943;-73
2022/02/11 06:30:19;;;;;;;;;;;9.90;99.90;;;;;;5071553;28;19916;-73
2022/02/11 06:32:45;;;;;;;;;;;10.00;99.90;;;;;;5079166;28;19917;-73
2022/02/11 06:35:11;;;;;;;;;;;10.00;99.90;;;;;;5080620;28;19912;-70
2022/02/11 06:37:37;;;;;;;;;;;10.10;99.90;;;;;;5070194;28;19924;-70
2022/02/11 06:40:03;;;;;;;;;;;10.10;99.90;;;;;;5076541;28;20404;-70
2022/02/11 06:42:29;;;;;;;;;;;10.10;99.90;;;;;;5074390;28;19912;-71
2022/02/11 06:44:55;;;;;;;;;;;10.20;99.90;;;;;;5070424;28;19913;-73
2022/02/11 06:47:21;;;;;;;;;;;10.20;99.90;;;;;;5078089;28;19923;-72
2022/02/11 06:49:47;;;;;;;;;;;10.20;99.90;;;;;;5059290;28;19920;-74
2022/02/11 06:52:13;;;;;;;;;;;10.20;99.90;;;;;;5076002;28;20003;-73
2022/02/11 06:54:38;;;;;;;;;;;10.20;99.90;;;;;;5056403;28;19947;-72
2022/02/11 06:57:04;;;;;;;;;;;10.30;99.90;;;;;;5070149;28;20370;-70
2022/02/11 06:59:29;;;;;;;;;;;10.40;99.90;;;;;;5055805;28;20019;-71
2022/02/11 07:01:55;;;;;;;;;;;10.40;99.90;;;;;;5065224;28;19992;-70
2022/02/11 07:04:21;;;;;;;;;;;10.40;99.90;;;;;;5048927;28;19965;-74
2022/02/11 07:06:46;;;;;;;;;;;10.40;99.90;;;;;;5062736;28;19908;-71
2022/02/11 07:09:12;;;;;;;;;;;10.30;99.90;;;;;;5059219;28;19982;-72
2022/02/11 07:11:38;;;;;;;;;;;10.40;99.90;;;;;;5075653;28;20626;-71
2022/02/11 07:14:04;;;;;;;;;;;10.40;99.90;;;;;;5075702;28;19920;-70
2022/02/11 07:16:30;;;;;;;;;;;10.40;99.90;;;;;;5075781;28;20120;-71
2022/02/11 07:18:55;;;;;;;;;;;10.40;99.90;;;;;;5074315;28;20045;-72
2022/02/11 07:21:21;;;;;;;;;;;10.50;99.90;;;;;;5081391;28;19912;-70
2022/02/11 07:23:47;;;;;;;;;;;10.60;99.90;;;;;;5077384;28;19951;-71
2022/02/11 07:26:13;;;;;;;;;;;10.60;99.90;;;;;;5072356;28;19912;-70
2022/02/11 07:28:39;;;;;;;;;;;10.60;99.90;;;;;;5094029;28;19912;-70
2022/02/11 07:31:05;;;;;;;;;;;10.60;99.90;;;;;;5095851;28;19959;-70
2022/02/11 07:33:30;;;;;;;;;;;10.60;99.90;;;;;;5084560;28;19955;-72
2022/02/11 07:35:56;;;;;;;;;;;10.60;99.90;;;;;;5082246;28;19913;-71
2022/02/11 07:38:22;;;;;;;;;;;10.60;99.90;;;;;;5063922;28;19920;-70
2022/02/11 07:40:48;;;;;;;;;;;10.60;99.90;;;;;;5070877;28;20335;-71
2022/02/11 07:43:14;;;;;;;;;;;10.60;99.90;;;;;;5068803;28;19913;-73
2022/02/11 07:45:39;;;;;;;;;;;10.80;99.90;;;;;;5091651;28;20515;-71
2022/02/11 07:48:05;;;;;;;;;;;10.90;99.90;;;;;;5087876;28;20385;-71
2022/02/11 07:50:31;;;;;;;;;;;10.90;99.90;;;;;;5057918;28;19924;-71
2022/02/11 07:52:56;;;;;;;;;;;10.90;99.90;;;;;;5060697;28;19912;-71
2022/02/11 07:55:22;;;;;;;;;;;10.80;99.90;;;;;;5087299;28;19999;-71
2022/02/11 07:57:48;;;;;;;;;;;10.80;99.90;;;;;;5070802;28;19919;-71
2022/02/11 08:00:14;;;;;;;;;;;10.80;99.90;;;;;;5072966;28;20000;-73
2022/02/11 08:02:40;;;;;;;;;;;10.90;99.90;;;;;;5073699;28;19917;-70
2022/02/11 08:05:06;;;;;;;;;;;11.00;99.90;;;;;;5070194;28;19912;-72
2022/02/11 08:07:32;;;;;;;;;;;11.00;99.90;;;;;;5063252;28;19966;-73
2022/02/11 08:09:58;;;;;;;;;;;11.00;99.90;;;;;;5072069;28;19912;-70
2022/02/11 08:12:23;;;;;;;;;;;11.00;99.90;;;;;;5089969;28;20294;-70
2022/02/11 08:14:50;;;;;;;;;;;10.90;99.90;;;;;;5072089;28;19912;-71
2022/02/11 08:17:16;;;;;;;;;;;11.00;99.90;;;;;;5062106;28;19917;-70
2022/02/11 08:19:41;;;;;;;;;;;11.00;99.90;;;;;;5065833;28;20015;-72
2022/02/11 08:22:07;;;;;;;;;;;11.10;99.90;;;;;;5077282;28;20288;-71
2022/02/11 08:24:32;;;;;;;;;;;11.10;99.90;;;;;;5053492;28;19919;-70
2022/02/11 08:26:58;;;;;;;;;;;11.20;99.90;;;;;;5069556;28;19919;-72
2022/02/11 08:29:25;;;;;;;;;;;11.20;99.90;;;;;;5083743;28;19999;-74
2022/02/11 08:31:54;;;;;;;;;;;11.20;99.90;;;;;;5060595;28;19923;-64
2022/02/11 08:34:23;;;;;;;;;;;11.10;99.90;;;;;;5059533;28;19917;-65
2022/02/11 08:36:49;;;;;;;;;;;11.00;99.90;;;;;;5072628;28;20003;-65
2022/02/11 08:39:15;;;;;;;;;;;10.90;99.90;;;;;;5063383;28;20003;-64
2022/02/11 08:41:41;;;;;;;;;;;10.90;99.90;;;;;;5088076;28;19916;-70
2022/02/11 08:44:06;;;;;;;;;;;10.90;99.90;;;;;;5079489;28;20232;-71
2022/02/11 08:46:32;;;;;;;;;;;11.10;99.90;;;;;;5068778;28;19982;-72
2022/02/11 08:48:58;;;;;;;;;;;11.10;99.90;;;;;;5083193;28;19952;-70
2022/02/11 08:51:23;;;;;;;;;;;11.10;99.90;;;;;;5081794;28;19912;-71
2022/02/11 08:53:51;;;;;;;;;;;11.10;99.90;;;;;;5076106;28;19969;-71
2022/02/11 08:56:17;;;;;;;;;;;11.20;99.90;;;;;;5068491;28;19916;-72
2022/02/11 08:58:43;;;;;;;;;;;11.30;99.90;;;;;;5065280;28;19978;-71
2022/02/11 09:01:08;;;;;;;;;;;11.40;99.90;;;;;;5061955;28;19920;-71
2022/02/11 09:03:39;;;;;;;;;;;11.40;99.90;;;;;;5058098;28;19920;-71
2022/02/11 09:06:05;;;;;;;;;;;11.40;99.90;;;;;;5064517;28;20416;-72
2022/02/11 09:08:33;;;;;;;;;;;11.30;99.90;;;;;;5070096;28;19912;-70
2022/02/11 09:10:59;;;;;;;;;;;11.20;99.90;;;;;;5084133;28;19920;-71
2022/02/11 09:13:27;;;;;;;;;;;11.00;99.90;;;;;;5062770;28;19916;-71
2022/02/11 09:15:56;;;;;;;;;;;10.90;99.90;;;;;;5056484;28;19974;-70
2022/02/11 09:18:22;;;;;;;;;;;11.10;99.90;;;;;;5069099;28;20058;-70
2022/02/11 09:20:48;;;;;;;;;;;11.20;99.90;;;;;;5059398;28;20390;-71
2022/02/11 09:23:14;;;;;;;;;;;11.30;99.90;;;;;;5069850;28;20397;-70
2022/02/11 09:25:40;;;;;;;;;;;11.40;99.90;;;;;;5063930;28;19913;-70
2022/02/11 09:28:06;;;;;;;;;;;11.50;99.90;;;;;;5068419;28;20426;-72
2022/02/11 09:30:32;;;;;;;;;;;11.50;99.90;;;;;;5076613;28;19974;-70
2022/02/11 09:32:59;;;;;;;;;;;11.50;99.90;;;;;;5069824;28;20007;-70
2022/02/11 09:35:28;;;;;;;;;;;11.60;99.90;;;;;;5067322;28;19916;-71
2022/02/11 09:37:54;;;;;;;;;;;11.60;99.90;;;;;;5085299;28;19913;-70
2022/02/11 09:40:20;;;;;;;;;;;11.60;99.90;;;;;;5064851;28;19923;-71
2022/02/11 09:42:47;;;;;;;;;;;11.80;99.90;;;;;;5057498;28;20363;-71
2022/02/11 09:45:15;;;;;;;;;;;12.00;99.90;;;;;;5060604;28;20227;-70
2022/02/11 09:47:41;;;;;;;;;;;12.10;99.90;;;;;;5057941;28;19920;-72
2022/02/11 09:50:07;;;;;;;;;;;12.10;99.90;;;;;;5057083;28;19913;-69
2022/02/11 09:52:43;;;;;;;;;;;11.90;99.90;;;;;;5086382;28;19912;-70
2022/02/11 09:57:54;;;;;;;;;;;11.60;99.90;;;;;;5061723;28;19923;-71
2022/02/11 10:00:23;;;;;;;;;;;11.50;99.90;;;;;;5067485;28;19996;-69
2022/02/11 10:02:53;;;;;;;;;;;11.40;99.90;;;;;;5070757;28;20319;-71
2022/02/11 10:05:22;;;;;;;;;;;11.20;99.90;;;;;;5066591;28;20282;-72
2022/02/11 10:07:48;;;;;;;;;;;11.20;99.90;;;;;;5082166;28;20274;-73
2022/02/11 10:10:18;;;;;;;;;;;11.20;99.90;;;;;;5060093;28;19920;-72
2022/02/11 10:12:44;;;;;;;;;;;11.30;99.90;;;;;;5068640;28;19955;-71
2022/02/11 10:15:16;;;;;;;;;;;11.40;99.90;;;;;;5064872;28;19978;-72
2022/02/11 10:17:42;;;;;;;;;;;11.50;99.90;;;;;;5063639;28;20374;-70
2022/02/11 10:20:08;;;;;;;;;;;11.50;99.90;;;;;;5069791;28;19920;-70
2022/02/11 10:22:34;;;;;;;;;;;11.60;99.90;;;;;;5069929;28;19913;-71
2022/02/11 10:24:59;;;;;;;;;;;11.50;99.90;;;;;;5066043;28;19966;-73
2022/02/11 10:27:35;;;;;;;;;;;11.50;99.90;;;;;;5060878;28;20393;-71
2022/02/11 10:30:02;;;;;;;;;;;11.40;99.90;;;;;;5064945;28;19996;-71
2022/02/11 10:32:47;;;;;;;;;;;11.40;99.90;;;;;;5064310;28;20370;-73
2022/02/11 10:35:17;;;;;;;;;;;11.40;99.90;;;;;;5052078;28;19936;-74
2022/02/11 10:38:01;;;;;;;;;;;11.30;99.90;;;;;;5053388;28;19962;-70
2022/02/11 10:40:30;;;;;;;;;;;11.30;99.90;;;;;;5051040;28;20007;-72
2022/02/11 10:42:55;;;;;;;;;;;11.30;99.90;;;;;;5085838;28;20581;-70
2022/02/11 10:45:25;;;;;;;;;;;11.30;99.90;;;;;;5106316;28;19908;-73
2022/02/11 10:48:06;;;;;;;;;;;11.40;99.90;;;;;;5065780;28;19995;-71
2022/02/11 10:50:32;;;;;;;;;;;11.50;99.90;;;;;;5050104;28;19919;-72
2022/02/11 10:52:58;;;;;;;;;;;11.50;99.90;;;;;;5059579;28;19912;-72
2022/02/11 10:55:25;;;;;;;;;;;11.40;99.90;;;;;;5054174;28;19912;-70
2022/02/11 10:57:58;;;;;;;;;;;11.30;99.90;;;;;;5074727;28;19928;-73
2022/02/11 11:00:24;;;;;;;;;;;11.10;99.90;;;;;;5069220;28;19913;-71
2022/02/11 11:02:50;;;;;;;;;;;10.90;99.90;;;;;;5073654;28;20366;-74
2022/02/11 11:05:16;;;;;;;;;;;10.90;99.90;;;;;;5083467;28;19916;-73
2022/02/11 11:07:42;;;;;;;;;;;10.80;99.90;;;;;;5073263;28;20331;-71
2022/02/11 11:10:10;;;;;;;;;;;10.60;99.90;;;;;;5081456;28;20035;-71
2022/02/11 11:12:36;;;;;;;;;;;10.60;99.90;;;;;;5089867;28;19916;-71
2022/02/11 11:15:02;;;;;;;;;;;10.60;99.90;;;;;;5076625;28;19942;-72
2022/02/11 11:17:30;;;;;;;;;;;10.70;99.90;;;;;;5094541;28;20032;-72
2022/02/11 11:19:56;;;;;;;;;;;10.80;99.90;;;;;;5070566;28;19927;-73
2022/02/11 11:22:27;;;;;;;;;;;10.80;99.90;;;;;;5074507;28;20286;-72
2022/02/11 11:24:56;;;;;;;;;;;10.90;99.90;;;;;;5081001;28;19919;-69
2022/02/11 11:27:39;;;;;;;;;;;11.10;99.90;;;;;;5094775;28;20370;-72
2022/02/11 11:30:20;;;;;;;;;;;11.30;99.90;;;;;;5086561;28;19919;-72
2022/02/11 11:33:04;;;;;;;;;;;11.40;99.90;;;;;;5065875;28;19923;-71
2022/02/11 11:35:37;;;;;;;;;;;11.50;99.90;;;;;;5062923;28;20270;-74
2022/02/11 11:38:11;;;;;;;;;;;11.50;99.90;;;;;;5066891;28;19973;-72
2022/02/11 11:40:38;;;;;;;;;;;11.40;99.90;;;;;;5065397;28;19993;-72
2022/02/11 11:43:13;;;;;;;;;;;11.50;99.90;;;;;;5076056;28;19912;-74
2022/02/11 11:45:42;;;;;;;;;;;11.50;99.90;;;;;;5054490;28;19928;-72
2022/02/11 11:48:14;;;;;;;;;;;11.60;99.90;;;;;;5063982;28;19912;-71
2022/02/11 11:50:41;;;;;;;;;;;11.70;99.90;;;;;;5067610;28;20389;-72
2022/02/11 11:53:26;;;;;;;;;;;11.90;99.90;;;;;;5071057;28;19908;-71
2022/02/11 11:55:52;;;;;;;;;;;11.90;99.90;;;;;;5061866;28;20027;-74
2022/02/11 11:58:50;;;;;;;;;;;12.10;99.90;;;;;;5056859;28;19913;-73
2022/02/11 12:01:19;;;;;;;;;;;12.20;99.90;;;;;;5029541;28;19999;-71
2022/02/11 12:04:03;;;;;;;;;;;12.10;99.90;;;;;;5062468;28;19971;-71
2022/02/11 12:06:31;;;;;;;;;;;12.00;99.90;;;;;;5053663;28;19916;-71
2022/02/11 12:08:57;;;;;;;;;;;12.00;99.90;;;;;;5084022;28;19919;-73
2022/02/11 12:11:23;;;;;;;;;;;11.90;99.90;;;;;;5088214;28;19913;-72
2022/02/11 12:13:48;;;;;;;;;;;11.90;99.90;;;;;;5056827;28;19978;-71
2022/02/11 12:16:14;;;;;;;;;;;12.00;99.90;;;;;;5064976;28;20011;-71
2022/02/11 12:18:42;;;;;;;;;;;12.00;99.90;;;;;;5073620;28;20354;-73
2022/02/11 12:21:08;;;;;;;;;;;12.00;99.90;;;;;;5066567;28;19952;-71
2022/02/11 12:29:07;;;;;;;;;;;12.20;99.90;;;;;;5076700;28;19963;-72
2022/02/11 12:31:33;;;;;;;;;;;12.20;99.90;;;;;;5071554;28;19975;-72
2022/02/11 12:34:16;;;;;;;;;;;12.10;99.90;;;;;;5068010;28;19955;-69
2022/02/11 12:36:42;;;;;;;;;;;12.00;99.90;;;;;;5065920;28;20298;-71
2022/02/11 12:39:08;;;;;;;;;;;11.90;99.90;;;;;;5061573;28;19912;-71
2022/02/11 12:41:47;;;;;;;;;;;11.90;99.90;;;;;;5058482;28;19958;-71
2022/02/11 12:44:42;;;;;;;;;;;11.80;99.90;;;;;;5075722;28;19999;-73
2022/02/11 12:47:07;;;;;;;;;;;11.80;99.90;;;;;;5049522;28;19920;-71
2022/02/11 12:49:42;;;;;;;;;;;11.90;99.90;;;;;;5069762;28;19912;-72
2022/02/11 12:52:07;;;;;;;;;;;12.00;99.90;;;;;;5060011;28;19965;-70
2022/02/11 12:54:33;;;;;;;;;;;12.10;99.90;;;;;;5080391;28;20139;-71
2022/02/11 12:57:01;;;;;;;;;;;12.10;99.90;;;;;;5064238;28;19917;-72
2022/02/11 12:59:27;;;;;;;;;;;12.10;99.90;;;;;;5067950;28;19913;-71
2022/02/11 13:01:53;;;;;;;;;;;12.00;99.90;;;;;;5061548;28;19912;-71
2022/02/11 13:04:19;;;;;;;;;;;12.00;99.90;;;;;;5066852;28;20328;-72
2022/02/11 13:06:45;;;;;;;;;;;12.00;99.90;;;;;;5066841;28;20475;-70
2022/02/11 13:09:11;;;;;;;;;;;11.90;99.90;;;;;;5084736;28;19927;-72
2022/02/11 13:11:37;;;;;;;;;;;11.80;99.90;;;;;;5063378;28;19999;-72
2022/02/11 13:14:04;;;;;;;;;;;11.70;99.90;;;;;;5058097;28;19924;-72
2022/02/11 13:16:30;;;;;;;;;;;11.60;99.90;;;;;;5066863;28;19916;-69
2022/02/11 13:18:57;;;;;;;;;;;11.60;99.90;;;;;;5072481;28;20298;-71
2022/02/11 13:21:22;;;;;;;;;;;11.60;99.90;;;;;;5065843;28;19995;-72
2022/02/11 13:23:52;;;;;;;;;;;11.60;99.90;;;;;;5099506;28;19951;-71
2022/02/11 13:26:18;;;;;;;;;;;11.70;99.90;;;;;;5070468;28;19913;-73
2022/02/11 13:28:45;;;;;;;;;;;11.80;99.90;;;;;;5058224;28;19912;-71
2022/02/11 13:31:11;;;;;;;;;;;11.90;99.90;;;;;;5072727;28;20283;-73
2022/02/11 13:33:37;;;;;;;;;;;11.90;99.90;;;;;;5071181;28;20028;-70
2022/02/11 13:36:03;;;;;;;;;;;12.00;99.90;;;;;;5059020;28;19925;-74
2022/02/11 13:38:29;;;;;;;;;;;12.00;99.90;;;;;;5075581;28;19955;-72
2022/02/11 13:40:56;;;;;;;;;;;12.10;99.90;;;;;;5070856;28;19954;-72
2022/02/11 13:43:22;;;;;;;;;;;12.10;99.90;;;;;;5057813;28;19921;-71
2022/02/11 13:45:50;;;;;;;;;;;12.10;99.90;;;;;;5052675;28;20047;-71
2022/02/11 13:48:19;;;;;;;;;;;12.10;99.90;;;;;;5076764;28;20363;-72
2022/02/11 13:51:05;;;;;;;;;;;12.00;99.90;;;;;;5063333;28;20390;-72
2022/02/11 13:53:34;;;;;;;;;;;12.00;99.90;;;;;;5067513;28;19916;-70
2022/02/11 13:56:01;;;;;;;;;;;12.00;99.90;;;;;;5051490;28;19913;-71
2022/02/11 13:58:27;;;;;;;;;;;12.00;99.90;;;;;;5061917;28;20042;-73
2022/02/11 14:00:53;;;;;;;;;;;12.00;99.90;;;;;;5069954;28;20020;-71
2022/02/11 14:03:23;;;;;;;;;;;11.90;99.90;;;;;;5059820;28;19919;-70
2022/02/11 14:05:49;;;;;;;;;;;11.90;99.90;;;;;;5074328;28;19915;-70
2022/02/11 14:08:15;;;;;;;;;;;11.90;99.90;;;;;;5082215;28;19912;-68
2022/02/11 14:10:43;;;;;;;;;;;11.90;99.90;;;;;;5061653;28;19923;-68
2022/02/11 14:13:10;;;;;;;;;;;11.90;99.90;;;;;;5077166;28;19944;-69
2022/02/11 14:15:36;;;;;;;;;;;12.00;99.90;;;;;;5059078;28;19951;-69
2022/02/11 14:18:03;;;;;;;;;;;11.90;99.90;;;;;;5062157;28;19924;-67
2022/02/11 14:20:29;;;;;;;;;;;12.00;99.90;;;;;;5084291;28;19923;-69
2022/02/11 14:22:54;;;;;;;;;;;11.90;99.90;;;;;;5063162;28;19917;-69
2022/02/11 14:25:20;;;;;;;;;;;11.80;99.90;;;;;;5052100;28;19913;-69
2022/02/11 14:27:45;;;;;;;;;;;11.50;99.90;;;;;;5072553;28;19912;-73
2022/02/11 14:30:12;;;;;;;;;;;11.30;99.90;;;;;;5067314;28;19919;-69
2022/02/11 14:32:37;;;;;;;;;;;11.10;99.90;;;;;;5068876;28;19956;-71
2022/02/11 14:35:07;;;;;;;;;;;11.00;99.90;;;;;;5065562;28;20623;-70
2022/02/11 14:37:36;;;;;;;;;;;10.90;99.90;;;;;;5070859;28;19916;-72
2022/02/11 14:40:03;;;;;;;;;;;10.90;99.90;;;;;;5050644;28;20243;-71
2022/02/11 14:42:28;;;;;;;;;;;10.90;99.90;;;;;;5077828;28;19913;-73
2022/02/11 14:44:55;;;;;;;;;;;10.90;99.90;;;;;;5069558;28;19952;-70
2022/02/11 14:47:29;;;;;;;;;;;11.00;99.90;;;;;;5052407;28;19920;-72
2022/02/11 14:49:58;;;;;;;;;;;11.00;99.90;;;;;;5048675;28;21046;-72
2022/02/11 14:52:25;;;;;;;;;;;11.10;99.90;;;;;;5048766;28;19920;-69
2022/02/11 14:54:54;;;;;;;;;;;11.10;99.90;;;;;;5067158;28;19917;-69
2022/02/11 14:57:19;;;;;;;;;;;11.20;99.90;;;;;;5055626;28;19921;-69
2022/02/11 14:59:45;;;;;;;;;;;11.30;99.90;;;;;;5064837;28;20506;-71
2022/02/11 15:02:11;;;;;;;;;;;11.30;99.90;;;;;;5066658;28;19965;-69
2022/02/11 15:04:36;;;;;;;;;;;11.20;99.90;;;;;;5082119;28;19923;-71
2022/02/11 15:07:03;;;;;;;;;;;11.20;99.90;;;;;;5081317;28;19957;-74
2022/02/11 15:09:29;;;;;;;;;;;11.20;99.90;;;;;;5082643;28;20046;-70
2022/02/11 15:11:54;;;;;;;;;;;11.20;99.90;;;;;;5057351;28;20384;-71
2022/02/11 15:14:21;;;;;;;;;;;11.20;99.90;;;;;;5076247;28;19965;-73
2022/02/11 15:16:47;;;;;;;;;;;11.20;99.90;;;;;;5079800;28;19916;-70
2022/02/11 15:19:13;;;;;;;;;;;11.20;99.90;;;;;;5087810;28;19915;-71
2022/02/11 15:21:39;;;;;;;;;;;11.20;99.90;;;;;;5071608;28;19913;-71
2022/02/11 15:24:04;;;;;;;;;;;11.20;99.90;;;;;;5074884;28;19909;-73
2022/02/11 15:26:30;;;;;;;;;;;11.20;99.90;;;;;;5065285;28;19912;-75
2022/02/11 15:28:56;;;;;;;;;;;11.10;99.90;;;;;;5080030;28;19909;-71
2022/02/11 15:31:22;;;;;;;;;;;11.10;99.90;;;;;;5074809;28;20019;-71
2022/02/11 15:33:47;;;;;;;;;;;11.10;99.90;;;;;;5074357;28;19916;-73
2022/02/11 15:36:14;;;;;;;;;;;11.00;99.90;;;;;;5089740;28;19913;-75
2022/02/11 15:38:40;;;;;;;;;;;11.00;99.90;;;;;;5089430;28;19919;-70
2022/02/11 15:41:07;;;;;;;;;;;10.90;99.90;;;;;;5064242;28;19909;-74
2022/02/11 15:43:35;;;;;;;;;;;10.80;99.90;;;;;;5062816;28;19913;-78
2022/02/11 15:46:01;;;;;;;;;;;10.80;99.90;;;;;;5069980;28;20008;-69
2022/02/11 15:48:27;;;;;;;;;;;10.70;99.90;;;;;;5089646;28;19960;-70
2022/02/11 15:50:53;;;;;;;;;;;10.60;99.90;;;;;;5085213;28;19912;-70
2022/02/11 15:53:19;;;;;;;;;;;10.50;99.90;;;;;;5073578;28;19989;-70
2022/02/11 15:55:46;;;;;;;;;;;10.50;99.90;;;;;;5074711;28;19913;-70
2022/02/11 15:58:12;;;;;;;;;;;10.40;99.90;;;;;;5077721;28;19998;-73
2022/02/11 16:00:38;;;;;;;;;;;10.40;99.90;;;;;;5105343;28;19997;-72
2022/02/11 16:03:04;;;;;;;;;;;10.40;99.90;;;;;;5072760;28;19908;-72
2022/02/11 16:05:30;;;;;;;;;;;10.50;99.90;;;;;;5081148;28;19913;-72
2022/02/11 16:07:56;;;;;;;;;;;10.60;99.90;;;;;;5068934;28;20007;-73
2022/02/11 16:10:22;;;;;;;;;;;10.70;99.90;;;;;;5075154;28;19978;-71
2022/02/11 16:12:48;;;;;;;;;;;10.70;99.90;;;;;;5071944;28;19924;-71
2022/02/11 16:15:14;;;;;;;;;;;10.60;99.90;;;;;;5079520;28;19908;-69
2022/02/11 16:17:59;;;;;;;;;;;10.50;99.90;;;;;;5071647;28;19984;-70
2022/02/11 16:20:26;;;;;;;;;;;10.50;99.90;;;;;;5077672;28;20358;-74
2022/02/11 16:22:51;;;;;;;;;;;10.50;99.90;;;;;;5068141;28;19923;-70
2022/02/11 16:25:17;;;;;;;;;;;10.50;99.90;;;;;;5062504;28;20410;-71
2022/02/11 16:27:42;;;;;;;;;;;10.40;99.90;;;;;;5085069;28;19974;-72
2022/02/11 16:30:08;;;;;;;;;;;10.20;99.90;;;;;;5082186;28;20385;-71
2022/02/11 16:32:34;;;;;;;;;;;10.20;99.90;;;;;;5073439;28;19913;-72
2022/02/11 16:35:00;;;;;;;;;;;10.10;99.90;;;;;;5085546;28;19909;-75
2022/02/11 16:37:25;;;;;;;;;;;10.10;99.90;;;;;;5066637;28;19973;-70
2022/02/11 16:39:51;;;;;;;;;;;10.00;99.90;;;;;;5083462;28;19913;-71
2022/02/11 16:42:16;;;;;;;;;;;10.00;99.90;;;;;;5074889;28;20337;-71
2022/02/11 16:44:42;;;;;;;;;;;10.00;99.90;;;;;;5088055;28;19920;-70
2022/02/11 16:47:08;;;;;;;;;;;10.00;99.90;;;;;;5078723;28;19913;-71
2022/02/11 16:49:33;;;;;;;;;;;10.10;99.90;;;;;;5068628;28;19935;-72
2022/02/11 16:52:00;;;;;;;;;;;10.00;99.90;;;;;;5069392;28;20389;-73
2022/02/11 16:54:26;;;;;;;;;;;10.00;99.90;;;;;;5064738;28;19912;-74
2022/02/11 16:56:51;;;;;;;;;;;10.00;99.90;;;;;;5062595;28;19922;-73
2022/02/11 16:59:17;;;;;;;;;;;10.10;99.90;;;;;;5059185;28;19916;-75
2022/02/11 17:01:43;;;;;;;;;;;10.20;99.90;;;;;;5057887;28;19913;-73
2022/02/11 17:04:08;;;;;;;;;;;10.30;99.90;;;;;;5070946;28;19913;-72
2022/02/11 17:06:34;;;;;;;;;;;10.30;99.90;;;;;;5063066;28;19939;-74
2022/02/11 17:09:19;;;;;;;;;;;10.20;99.90;;;;;;5070575;28;20002;-77
2022/02/11 17:11:45;;;;;;;;;;;10.20;99.90;;;;;;5087493;28;19916;-73
2022/02/11 17:14:11;;;;;;;;;;;10.20;99.90;;;;;;5085941;28;19982;-75
2022/02/11 17:16:49;;;;;;;;;;;10.20;99.90;;;;;;5067665;28;19986;-74
2022/02/11 17:19:15;;;;;;;;;;;10.20;99.90;;;;;;5057246;28;19913;-74
2022/02/11 17:21:41;;;;;;;;;;;10.10;99.90;;;;;;5071125;28;19924;-73
2022/02/11 17:24:22;;;;;;;;;;;10.10;99.90;;;;;;5061778;28;19920;-76
2022/02/11 17:26:49;;;;;;;;;;;10.10;99.90;;;;;;5065393;28;19913;-75
2022/02/11 17:29:15;;;;;;;;;;;10.10;99.90;;;;;;5091002;28;19931;-74
2022/02/11 17:31:40;;;;;;;;;;;10.20;99.90;;;;;;5105043;28;19908;-75
2022/02/11 17:34:06;;;;;;;;;;;10.30;99.90;;;;;;5088711;28;19913;-73
2022/02/11 17:36:59;;;;;;;;;;;10.30;99.90;;;;;;5095101;28;19927;-76
2022/02/11 17:39:32;;;;;;;;;;;10.30;99.90;;;;;;5070041;28;19931;-77
2022/02/11 17:42:08;;;;;;;;;;;10.30;99.90;;;;;;5083719;28;19935;-74
2022/02/11 17:44:34;;;;;;;;;;;10.30;99.90;;;;;;5074506;28;20603;-74
2022/02/11 17:47:00;;;;;;;;;;;10.30;99.90;;;;;;5054287;28;19959;-75
2022/02/11 17:52:28;;;;;;;;;;;10.70;99.90;;;;;;5067431;28;19916;-74
2022/02/11 17:54:54;;;;;;;;;;;10.80;99.90;;;;;;5066254;28;19912;-76
2022/02/11 17:57:20;;;;;;;;;;;10.90;99.90;;;;;;5060791;28;20348;-74
2022/02/11 17:59:46;;;;;;;;;;;10.80;99.90;;;;;;5073372;28;19909;-77
2022/02/11 18:02:11;;;;;;;;;;;10.90;99.90;;;;;;5073267;28;20378;-77
2022/02/11 18:04:37;;;;;;;;;;;10.80;99.90;;;;;;5082080;28;20007;-75
2022/02/11 18:07:02;;;;;;;;;;;10.70;99.90;;;;;;5103720;28;20014;-76
2022/02/11 18:09:28;;;;;;;;;;;10.60;99.90;;;;;;5069576;28;20000;-78
2022/02/11 18:11:54;;;;;;;;;;;10.50;99.90;;;;;;5065527;28;20292;-77
2022/02/11 18:14:19;;;;;;;;;;;10.30;99.90;;;;;;5072500;28;19931;-76
2022/02/11 18:16:46;;;;;;;;;;;10.30;99.90;;;;;;5076559;28;19956;-76
2022/02/11 18:19:11;;;;;;;;;;;10.30;99.90;;;;;;5080230;28;20504;-74
2022/02/11 18:21:37;;;;;;;;;;;10.40;99.90;;;;;;5065663;28;19943;-80
2022/02/11 18:24:04;;;;;;;;;;;10.40;99.90;;;;;;5080608;28;19924;-75
2022/02/11 18:26:29;;;;;;;;;;;10.40;99.90;;;;;;5073227;28;20267;-76
2022/02/11 18:28:56;;;;;;;;;;;10.40;99.90;;;;;;5052619;28;19913;-73
2022/02/11 18:31:22;;;;;;;;;;;10.50;99.90;;;;;;5076042;28;19970;-76
2022/02/11 18:33:48;;;;;;;;;;;10.60;99.90;;;;;;5076597;28;19913;-74